Terminal Aerodrome Forecast
Issued by NWS Springfield, MO

Home | Current Version | Previous Version | Text Only | Print | Product List | Glossary On
Versions: 1 2 3 4 5 6 7 8 9 10 11 12 13 14 15 16 17 18 19 20 21 22 23 24 25 26 27 28
000
FTUS43 KSGF 271720
TAFSGF
TAF
KSGF 271720Z 2718/2818 17012KT P6SM VCSH SCT015 OVC050
     FM272200 18011KT P6SM -SHRA BKN030
      TEMPO 2722/2802 4SM TS OVC025CB
     FM280200 17012KT P6SM VCTS BKN030CB PROB30 2803/2807 3SM -TSRA
      OVC015CB
     FM281200 17011KT P6SM BKN015
     FM281600 19014KT P6SM BKN035=

USA.gov is the U.S. government's official web portal to all federal, state and local government web resources and services.